Hauptseite
METAR-TAF:

METAR-TAF

Flughäfen :

Flugplatz St. Gallen-Altenrhein

St. Gallen, Schweiz

Breite: 47-29-06N, Länge: 009-33-43E, Höhe: 398 m

Beobachtung

Neuester Wetterbericht von vor 16 Minuten, um 15:20 UTC
Wind 4 kt aus West
Temperatur 17°C
Luftfeuchtigkeit 72%
Luftdruck 1016 hPa
Sichtweite 10 km oder mehr
keine Wolken unter 1500 m und keine Kumulonimbus oder Gewitterwolken

METAR: LSZR 171520Z 28004KT CAVOK 17/12 Q1016 NOSIG RMK O

Zeit: 17:36 (15:36 UTC)

Prognose

Neuester Wetterbericht von vor 1 Stunde und 11 Minuten, um 14:25 UTC
Gültige Prognose vom 17 um 15 UTC bis 17 um 24 UTC
Wind 5 kt aus West
Sichtweite 10 km oder mehr
keine Wolken unter 1500 m und keine Kumulonimbus oder Gewitterwolken
Übergehend zu
vom 17 um 20 UTC bis 17 um 22 UTC
Sichtweite: 7000 m

TAF: LSZR 171425Z 1715/1724 28005KT CAVOK BECMG 1720/1722 7000 NSC

Wetterbeobachtungen und Prognosen von mehr als 4000 Flughäfen (METAR und TAF Bericht).

Die verfügbaren Stationen werden durch gelbe und rote Markierungen auf der Karte dargestellt.

Führen Sie die Maus auf sie, um den Namen der Station zu sehen.

Darauf klicken, um die Beobachtung von Wetterbeobachtungen und Prognosen zu sehen.

Um die Karte zu ändern : klicken Sie auf den grünen Tasten mit einem schwarzen Kreuz Zum Vergrößern, auf den grünen Button mit einem Gedankenstrich zu verkleinern, oder auf die grünen Pfeile für benachbarte Karten.


METAR-TAF: